sensor_id;sensor_type;location;lat;lon;timestamp;P1;durP1;ratioP1;P2;durP2;ratioP2
45887;SDS011;31595;51.418;7.572;2023-07-31T00:01:18;6.72;;;4.07;;
45887;SDS011;31595;51.418;7.572;2023-07-31T00:06:12;5.53;;;3.92;;
45887;SDS011;31595;51.418;7.572;2023-07-31T00:08:39;8.40;;;4.35;;
45887;SDS011;31595;51.418;7.572;2023-07-31T00:11:08;9.20;;;4.85;;
45887;SDS011;31595;51.418;7.572;2023-07-31T00:13:35;10.25;;;5.97;;
45887;SDS011;31595;51.418;7.572;2023-07-31T00:16:02;11.35;;;6.68;;
45887;SDS011;31595;51.418;7.572;2023-07-31T00:18:29;12.35;;;6.85;;
45887;SDS011;31595;51.418;7.572;2023-07-31T00:20:55;9.93;;;5.47;;
45887;SDS011;31595;51.418;7.572;2023-07-31T00:23:22;12.73;;;6.80;;
45887;SDS011;31595;51.418;7.572;2023-07-31T00:25:49;9.07;;;6.28;;
45887;SDS011;31595;51.418;7.572;2023-07-31T00:28:18;8.30;;;4.78;;
45887;SDS011;31595;51.418;7.572;2023-07-31T00:30:44;9.90;;;5.50;;
45887;SDS011;31595;51.418;7.572;2023-07-31T00:33:12;12.40;;;6.35;;
45887;SDS011;31595;51.418;7.572;2023-07-31T00:35:38;13.77;;;7.35;;
45887;SDS011;31595;51.418;7.572;2023-07-31T00:38:05;13.07;;;6.57;;
45887;SDS011;31595;51.418;7.572;2023-07-31T00:40:34;11.55;;;6.25;;
45887;SDS011;31595;51.418;7.572;2023-07-31T00:43:01;12.75;;;5.97;;
45887;SDS011;31595;51.418;7.572;2023-07-31T00:54:38;14.05;;;6.35;;
45887;SDS011;31595;51.418;7.572;2023-07-31T00:57:11;17.02;;;6.88;;
45887;SDS011;31595;51.418;7.572;2023-07-31T00:59:38;9.95;;;4.78;;
45887;SDS011;31595;51.418;7.572;2023-07-31T01:02:05;10.35;;;5.57;;
45887;SDS011;31595;51.418;7.572;2023-07-31T01:04:44;13.07;;;6.20;;
45887;SDS011;31595;51.418;7.572;2023-07-31T01:07:13;10.98;;;5.22;;
45887;SDS011;31595;51.418;7.572;2023-07-31T01:09:44;14.20;;;5.85;;
45887;SDS011;31595;51.418;7.572;2023-07-31T01:12:13;13.07;;;6.03;;
45887;SDS011;31595;51.418;7.572;2023-07-31T01:14:40;14.85;;;6.28;;
45887;SDS011;31595;51.418;7.572;2023-07-31T01:17:07;9.30;;;5.45;;
45887;SDS011;31595;51.418;7.572;2023-07-31T01:19:34;10.23;;;5.38;;
45887;SDS011;31595;51.418;7.572;2023-07-31T01:24:49;13.18;;;5.03;;
45887;SDS011;31595;51.418;7.572;2023-07-31T01:27:23;15.10;;;5.97;;
45887;SDS011;31595;51.418;7.572;2023-07-31T01:29:53;11.55;;;5.88;;
45887;SDS011;31595;51.418;7.572;2023-07-31T01:32:24;10.73;;;5.60;;
45887;SDS011;31595;51.418;7.572;2023-07-31T01:34:51;12.52;;;5.45;;
45887;SDS011;31595;51.418;7.572;2023-07-31T01:37:18;9.90;;;5.20;;
45887;SDS011;31595;51.418;7.572;2023-07-31T01:39:45;10.70;;;4.88;;
45887;SDS011;31595;51.418;7.572;2023-07-31T01:42:12;12.82;;;5.20;;
45887;SDS011;31595;51.418;7.572;2023-07-31T01:44:43;9.35;;;4.95;;
45887;SDS011;31595;51.418;7.572;2023-07-31T01:47:10;11.10;;;4.57;;
45887;SDS011;31595;51.418;7.572;2023-07-31T01:49:37;9.48;;;4.82;;
45887;SDS011;31595;51.418;7.572;2023-07-31T01:52:04;11.93;;;4.50;;
45887;SDS011;31595;51.418;7.572;2023-07-31T01:54:31;10.70;;;4.75;;
45887;SDS011;31595;51.418;7.572;2023-07-31T01:56:58;9.35;;;4.40;;
45887;SDS011;31595;51.418;7.572;2023-07-31T01:59:25;8.77;;;4.45;;
45887;SDS011;31595;51.418;7.572;2023-07-31T02:01:54;9.88;;;3.80;;
45887;SDS011;31595;51.418;7.572;2023-07-31T02:04:20;10.05;;;4.70;;
45887;SDS011;31595;51.418;7.572;2023-07-31T02:06:47;10.25;;;4.85;;
45887;SDS011;31595;51.418;7.572;2023-07-31T02:09:14;7.15;;;4.32;;
45887;SDS011;31595;51.418;7.572;2023-07-31T02:11:41;9.27;;;4.72;;
45887;SDS011;31595;51.418;7.572;2023-07-31T02:14:11;7.53;;;4.40;;
45887;SDS011;31595;51.418;7.572;2023-07-31T02:16:54;9.77;;;4.07;;
45887;SDS011;31595;51.418;7.572;2023-07-31T02:19:24;7.85;;;4.00;;
45887;SDS011;31595;51.418;7.572;2023-07-31T02:21:51;11.55;;;4.82;;
45887;SDS011;31595;51.418;7.572;2023-07-31T02:24:17;9.68;;;4.03;;
45887;SDS011;31595;51.418;7.572;2023-07-31T02:26:44;7.28;;;3.75;;
45887;SDS011;31595;51.418;7.572;2023-07-31T02:29:11;8.05;;;4.20;;
45887;SDS011;31595;51.418;7.572;2023-07-31T02:31:38;8.65;;;4.07;;
45887;SDS011;31595;51.418;7.572;2023-07-31T02:34:06;10.77;;;4.05;;
45887;SDS011;31595;51.418;7.572;2023-07-31T02:36:33;11.05;;;4.72;;
45887;SDS011;31595;51.418;7.572;2023-07-31T02:38:59;9.13;;;3.85;;
45887;SDS011;31595;51.418;7.572;2023-07-31T02:41:26;6.93;;;3.60;;
45887;SDS011;31595;51.418;7.572;2023-07-31T02:43:53;8.43;;;4.68;;
45887;SDS011;31595;51.418;7.572;2023-07-31T02:46:19;6.22;;;3.88;;
45887;SDS011;31595;51.418;7.572;2023-07-31T02:48:49;8.70;;;3.55;;
45887;SDS011;31595;51.418;7.572;2023-07-31T02:51:18;7.53;;;3.88;;
45887;SDS011;31595;51.418;7.572;2023-07-31T02:53:46;7.50;;;4.50;;
45887;SDS011;31595;51.418;7.572;2023-07-31T02:56:13;8.45;;;4.82;;
45887;SDS011;31595;51.418;7.572;2023-07-31T02:58:40;9.93;;;4.38;;
45887;SDS011;31595;51.418;7.572;2023-07-31T03:01:07;7.70;;;3.78;;
45887;SDS011;31595;51.418;7.572;2023-07-31T03:03:33;12.95;;;4.43;;
45887;SDS011;31595;51.418;7.572;2023-07-31T03:06:00;8.40;;;3.72;;
45887;SDS011;31595;51.418;7.572;2023-07-31T03:08:28;10.77;;;4.57;;
45887;SDS011;31595;51.418;7.572;2023-07-31T03:10:56;9.02;;;4.10;;
45887;SDS011;31595;51.418;7.572;2023-07-31T03:13:23;8.80;;;4.00;;
45887;SDS011;31595;51.418;7.572;2023-07-31T03:15:50;8.93;;;3.90;;
45887;SDS011;31595;51.418;7.572;2023-07-31T03:18:16;10.95;;;4.50;;
45887;SDS011;31595;51.418;7.572;2023-07-31T03:20:43;11.25;;;4.93;;
45887;SDS011;31595;51.418;7.572;2023-07-31T03:23:10;10.85;;;5.18;;
45887;SDS011;31595;51.418;7.572;2023-07-31T03:25:39;8.60;;;4.38;;
45887;SDS011;31595;51.418;7.572;2023-07-31T03:28:06;8.77;;;4.47;;
45887;SDS011;31595;51.418;7.572;2023-07-31T03:30:32;8.07;;;4.25;;
45887;SDS011;31595;51.418;7.572;2023-07-31T03:35:28;12.05;;;4.63;;
45887;SDS011;31595;51.418;7.572;2023-07-31T03:37:55;9.73;;;4.63;;
45887;SDS011;31595;51.418;7.572;2023-07-31T03:40:22;11.90;;;4.72;;
45887;SDS011;31595;51.418;7.572;2023-07-31T03:42:50;11.32;;;4.05;;
45887;SDS011;31595;51.418;7.572;2023-07-31T03:45:17;10.98;;;4.43;;
45887;SDS011;31595;51.418;7.572;2023-07-31T03:47:43;9.38;;;4.40;;
45887;SDS011;31595;51.418;7.572;2023-07-31T03:50:10;10.00;;;4.18;;
45887;SDS011;31595;51.418;7.572;2023-07-31T03:52:37;8.38;;;3.92;;
45887;SDS011;31595;51.418;7.572;2023-07-31T03:55:07;10.77;;;4.95;;
45887;SDS011;31595;51.418;7.572;2023-07-31T03:57:34;8.10;;;3.83;;
45887;SDS011;31595;51.418;7.572;2023-07-31T04:00:02;5.88;;;3.47;;
45887;SDS011;31595;51.418;7.572;2023-07-31T04:02:29;9.45;;;4.45;;
45887;SDS011;31595;51.418;7.572;2023-07-31T04:04:56;8.88;;;4.43;;
45887;SDS011;31595;51.418;7.572;2023-07-31T04:07:23;10.52;;;4.43;;
45887;SDS011;31595;51.418;7.572;2023-07-31T04:09:49;9.57;;;4.40;;
45887;SDS011;31595;51.418;7.572;2023-07-31T04:12:16;9.45;;;4.20;;
45887;SDS011;31595;51.418;7.572;2023-07-31T04:14:43;10.13;;;4.13;;
45887;SDS011;31595;51.418;7.572;2023-07-31T04:17:11;7.47;;;4.22;;
45887;SDS011;31595;51.418;7.572;2023-07-31T04:19:38;8.10;;;4.18;;
45887;SDS011;31595;51.418;7.572;2023-07-31T04:22:05;9.27;;;4.25;;
45887;SDS011;31595;51.418;7.572;2023-07-31T04:24:31;8.57;;;3.92;;
45887;SDS011;31595;51.418;7.572;2023-07-31T04:26:58;6.97;;;4.07;;
45887;SDS011;31595;51.418;7.572;2023-07-31T04:29:25;7.97;;;4.25;;
45887;SDS011;31595;51.418;7.572;2023-07-31T04:31:52;8.38;;;4.38;;
45887;SDS011;31595;51.418;7.572;2023-07-31T04:34:20;9.50;;;4.38;;
45887;SDS011;31595;51.418;7.572;2023-07-31T04:36:46;10.25;;;4.45;;
45887;SDS011;31595;51.418;7.572;2023-07-31T04:39:13;8.98;;;4.47;;
45887;SDS011;31595;51.418;7.572;2023-07-31T04:41:40;8.88;;;4.22;;
45887;SDS011;31595;51.418;7.572;2023-07-31T04:44:07;6.90;;;4.38;;
45887;SDS011;31595;51.418;7.572;2023-07-31T04:46:33;8.57;;;4.00;;
45887;SDS011;31595;51.418;7.572;2023-07-31T04:49:01;8.82;;;3.97;;
45887;SDS011;31595;51.418;7.572;2023-07-31T04:51:29;10.00;;;4.90;;
45887;SDS011;31595;51.418;7.572;2023-07-31T04:53:56;8.45;;;4.50;;
45887;SDS011;31595;51.418;7.572;2023-07-31T04:56:23;9.32;;;4.30;;
45887;SDS011;31595;51.418;7.572;2023-07-31T04:58:50;7.82;;;3.97;;
45887;SDS011;31595;51.418;7.572;2023-07-31T05:01:16;7.53;;;4.20;;
45887;SDS011;31595;51.418;7.572;2023-07-31T05:03:43;10.93;;;4.45;;
45887;SDS011;31595;51.418;7.572;2023-07-31T05:06:10;9.00;;;4.35;;
45887;SDS011;31595;51.418;7.572;2023-07-31T05:08:39;7.97;;;4.20;;
45887;SDS011;31595;51.418;7.572;2023-07-31T05:11:05;8.60;;;4.07;;
45887;SDS011;31595;51.418;7.572;2023-07-31T05:13:32;8.63;;;4.55;;
45887;SDS011;31595;51.418;7.572;2023-07-31T05:15:59;8.50;;;4.32;;
45887;SDS011;31595;51.418;7.572;2023-07-31T05:18:26;8.18;;;4.10;;
45887;SDS011;31595;51.418;7.572;2023-07-31T05:20:53;8.57;;;4.38;;
45887;SDS011;31595;51.418;7.572;2023-07-31T05:23:19;8.88;;;4.85;;
45887;SDS011;31595;51.418;7.572;2023-07-31T05:25:47;9.30;;;4.55;;
45887;SDS011;31595;51.418;7.572;2023-07-31T05:28:14;10.88;;;4.60;;
45887;SDS011;31595;51.418;7.572;2023-07-31T05:30:41;6.88;;;4.38;;
45887;SDS011;31595;51.418;7.572;2023-07-31T05:33:08;7.65;;;4.00;;
45887;SDS011;31595;51.418;7.572;2023-07-31T05:35:34;8.02;;;4.25;;
45887;SDS011;31595;51.418;7.572;2023-07-31T05:38:01;7.50;;;4.60;;
45887;SDS011;31595;51.418;7.572;2023-07-31T05:40:28;7.53;;;5.00;;
45887;SDS011;31595;51.418;7.572;2023-07-31T05:42:56;8.02;;;4.03;;
45887;SDS011;31595;51.418;7.572;2023-07-31T05:45:24;10.07;;;4.78;;
45887;SDS011;31595;51.418;7.572;2023-07-31T05:47:51;7.93;;;4.20;;
45887;SDS011;31595;51.418;7.572;2023-07-31T05:50:18;8.38;;;5.32;;
45887;SDS011;31595;51.418;7.572;2023-07-31T05:52:44;6.75;;;4.43;;
45887;SDS011;31595;51.418;7.572;2023-07-31T05:55:11;6.68;;;4.18;;
45887;SDS011;31595;51.418;7.572;2023-07-31T05:57:38;9.15;;;5.38;;
45887;SDS011;31595;51.418;7.572;2023-07-31T06:00:07;10.48;;;5.70;;
45887;SDS011;31595;51.418;7.572;2023-07-31T06:02:34;10.25;;;4.57;;
45887;SDS011;31595;51.418;7.572;2023-07-31T06:05:02;7.68;;;4.70;;
45887;SDS011;31595;51.418;7.572;2023-07-31T06:07:29;8.48;;;4.60;;
45887;SDS011;31595;51.418;7.572;2023-07-31T06:09:56;8.90;;;5.28;;
45887;SDS011;31595;51.418;7.572;2023-07-31T06:12:27;6.75;;;4.45;;
45887;SDS011;31595;51.418;7.572;2023-07-31T06:14:54;10.15;;;4.90;;
45887;SDS011;31595;51.418;7.572;2023-07-31T06:17:22;8.50;;;4.93;;
45887;SDS011;31595;51.418;7.572;2023-07-31T06:19:49;7.45;;;5.00;;
45887;SDS011;31595;51.418;7.572;2023-07-31T06:22:17;9.18;;;4.60;;
45887;SDS011;31595;51.418;7.572;2023-07-31T06:24:43;8.43;;;5.13;;
45887;SDS011;31595;51.418;7.572;2023-07-31T06:27:10;8.55;;;4.50;;
45887;SDS011;31595;51.418;7.572;2023-07-31T06:29:37;8.35;;;4.65;;
45887;SDS011;31595;51.418;7.572;2023-07-31T06:32:04;5.80;;;4.82;;
45887;SDS011;31595;51.418;7.572;2023-07-31T06:34:32;10.80;;;5.15;;
45887;SDS011;31595;51.418;7.572;2023-07-31T06:36:59;6.25;;;4.18;;
45887;SDS011;31595;51.418;7.572;2023-07-31T06:39:26;6.82;;;4.50;;
45887;SDS011;31595;51.418;7.572;2023-07-31T06:41:53;8.38;;;4.95;;
45887;SDS011;31595;51.418;7.572;2023-07-31T06:44:20;7.82;;;4.70;;
45887;SDS011;31595;51.418;7.572;2023-07-31T06:46:46;7.68;;;4.35;;
45887;SDS011;31595;51.418;7.572;2023-07-31T06:49:13;12.90;;;5.47;;
45887;SDS011;31595;51.418;7.572;2023-07-31T06:51:43;7.30;;;4.90;;
45887;SDS011;31595;51.418;7.572;2023-07-31T06:54:10;8.15;;;5.32;;
45887;SDS011;31595;51.418;7.572;2023-07-31T06:56:37;10.40;;;5.28;;
45887;SDS011;31595;51.418;7.572;2023-07-31T06:59:04;7.25;;;4.70;;
45887;SDS011;31595;51.418;7.572;2023-07-31T07:01:30;12.85;;;5.35;;
45887;SDS011;31595;51.418;7.572;2023-07-31T07:03:57;7.05;;;4.47;;
45887;SDS011;31595;51.418;7.572;2023-07-31T07:06:24;6.75;;;3.90;;
45887;SDS011;31595;51.418;7.572;2023-07-31T07:08:52;8.05;;;4.35;;
45887;SDS011;31595;51.418;7.572;2023-07-31T07:11:19;8.80;;;4.13;;
45887;SDS011;31595;51.418;7.572;2023-07-31T07:13:46;6.00;;;4.28;;
45887;SDS011;31595;51.418;7.572;2023-07-31T07:16:13;5.38;;;3.40;;
45887;SDS011;31595;51.418;7.572;2023-07-31T07:18:40;6.18;;;3.90;;
45887;SDS011;31595;51.418;7.572;2023-07-31T07:21:07;7.35;;;4.00;;
45887;SDS011;31595;51.418;7.572;2023-07-31T07:23:33;8.23;;;4.10;;
45887;SDS011;31595;51.418;7.572;2023-07-31T07:26:02;6.88;;;3.75;;
45887;SDS011;31595;51.418;7.572;2023-07-31T07:28:29;8.32;;;3.80;;
45887;SDS011;31595;51.418;7.572;2023-07-31T07:30:56;6.32;;;4.20;;
45887;SDS011;31595;51.418;7.572;2023-07-31T07:33:23;6.75;;;4.05;;
45887;SDS011;31595;51.418;7.572;2023-07-31T07:35:50;6.97;;;3.35;;
45887;SDS011;31595;51.418;7.572;2023-07-31T07:38:17;7.13;;;3.85;;
45887;SDS011;31595;51.418;7.572;2023-07-31T07:40:44;5.57;;;4.00;;
45887;SDS011;31595;51.418;7.572;2023-07-31T07:43:13;7.30;;;4.40;;
45887;SDS011;31595;51.418;7.572;2023-07-31T07:45:40;5.25;;;3.67;;
45887;SDS011;31595;51.418;7.572;2023-07-31T07:48:07;7.30;;;3.33;;
45887;SDS011;31595;51.418;7.572;2023-07-31T07:50:33;7.13;;;4.00;;
45887;SDS011;31595;51.418;7.572;2023-07-31T07:53:00;5.45;;;3.40;;
45887;SDS011;31595;51.418;7.572;2023-07-31T07:55:27;9.15;;;5.10;;
45887;SDS011;31595;51.418;7.572;2023-07-31T07:57:55;6.20;;;3.88;;
45887;SDS011;31595;51.418;7.572;2023-07-31T08:00:23;8.52;;;4.97;;
45887;SDS011;31595;51.418;7.572;2023-07-31T08:02:50;11.35;;;5.82;;
45887;SDS011;31595;51.418;7.572;2023-07-31T08:05:17;13.02;;;6.18;;
45887;SDS011;31595;51.418;7.572;2023-07-31T08:07:44;14.95;;;7.78;;
45887;SDS011;31595;51.418;7.572;2023-07-31T08:10:10;13.48;;;6.88;;
45887;SDS011;31595;51.418;7.572;2023-07-31T08:12:37;15.45;;;7.85;;
45887;SDS011;31595;51.418;7.572;2023-07-31T08:15:04;12.35;;;7.03;;
45887;SDS011;31595;51.418;7.572;2023-07-31T08:17:33;10.55;;;6.00;;
45887;SDS011;31595;51.418;7.572;2023-07-31T08:19:59;11.65;;;6.82;;
45887;SDS011;31595;51.418;7.572;2023-07-31T08:22:26;12.57;;;7.15;;
45887;SDS011;31595;51.418;7.572;2023-07-31T08:24:53;9.80;;;5.40;;
45887;SDS011;31595;51.418;7.572;2023-07-31T08:27:20;9.63;;;5.20;;
45887;SDS011;31595;51.418;7.572;2023-07-31T08:29:46;11.50;;;5.47;;
45887;SDS011;31595;51.418;7.572;2023-07-31T08:32:13;10.55;;;6.70;;
45887;SDS011;31595;51.418;7.572;2023-07-31T08:34:41;11.80;;;6.60;;
45887;SDS011;31595;51.418;7.572;2023-07-31T08:37:08;10.05;;;5.72;;
45887;SDS011;31595;51.418;7.572;2023-07-31T08:39:36;10.70;;;5.43;;
45887;SDS011;31595;51.418;7.572;2023-07-31T08:42:07;6.15;;;3.92;;
45887;SDS011;31595;51.418;7.572;2023-07-31T08:44:35;6.05;;;3.40;;
45887;SDS011;31595;51.418;7.572;2023-07-31T08:47:03;5.75;;;3.78;;
45887;SDS011;31595;51.418;7.572;2023-07-31T08:49:30;6.00;;;3.58;;
45887;SDS011;31595;51.418;7.572;2023-07-31T08:51:58;5.72;;;3.33;;
45887;SDS011;31595;51.418;7.572;2023-07-31T08:54:25;5.03;;;3.28;;
45887;SDS011;31595;51.418;7.572;2023-07-31T08:56:56;4.72;;;2.70;;
45887;SDS011;31595;51.418;7.572;2023-07-31T08:59:25;3.95;;;2.92;;
45887;SDS011;31595;51.418;7.572;2023-07-31T09:01:53;4.28;;;2.42;;
45887;SDS011;31595;51.418;7.572;2023-07-31T09:04:22;4.55;;;2.72;;
45887;SDS011;31595;51.418;7.572;2023-07-31T09:06:49;5.80;;;3.10;;
45887;SDS011;31595;51.418;7.572;2023-07-31T09:09:17;4.57;;;2.78;;
45887;SDS011;31595;51.418;7.572;2023-07-31T09:11:46;3.35;;;2.35;;
45887;SDS011;31595;51.418;7.572;2023-07-31T09:14:12;3.33;;;2.38;;
45887;SDS011;31595;51.418;7.572;2023-07-31T09:16:51;3.70;;;2.40;;
45887;SDS011;31595;51.418;7.572;2023-07-31T09:19:24;4.18;;;2.60;;
45887;SDS011;31595;51.418;7.572;2023-07-31T09:21:51;2.95;;;2.22;;
45887;SDS011;31595;51.418;7.572;2023-07-31T09:24:25;3.83;;;2.10;;
45887;SDS011;31595;51.418;7.572;2023-07-31T09:26:53;4.40;;;2.20;;
45887;SDS011;31595;51.418;7.572;2023-07-31T09:29:20;4.70;;;2.20;;
45887;SDS011;31595;51.418;7.572;2023-07-31T09:31:47;3.05;;;1.80;;
45887;SDS011;31595;51.418;7.572;2023-07-31T09:34:13;3.17;;;2.05;;
45887;SDS011;31595;51.418;7.572;2023-07-31T09:36:41;3.67;;;2.40;;
45887;SDS011;31595;51.418;7.572;2023-07-31T09:39:08;3.50;;;2.10;;
45887;SDS011;31595;51.418;7.572;2023-07-31T09:41:38;4.63;;;2.20;;
45887;SDS011;31595;51.418;7.572;2023-07-31T09:44:05;4.10;;;2.50;;
45887;SDS011;31595;51.418;7.572;2023-07-31T09:46:32;4.45;;;2.30;;
45887;SDS011;31595;51.418;7.572;2023-07-31T09:49:04;3.72;;;2.60;;
45887;SDS011;31595;51.418;7.572;2023-07-31T09:51:31;4.90;;;2.67;;
45887;SDS011;31595;51.418;7.572;2023-07-31T09:54:12;3.80;;;2.53;;
45887;SDS011;31595;51.418;7.572;2023-07-31T09:56:42;4.82;;;2.72;;
45887;SDS011;31595;51.418;7.572;2023-07-31T09:59:10;6.57;;;2.88;;
45887;SDS011;31595;51.418;7.572;2023-07-31T10:01:38;4.57;;;2.60;;
45887;SDS011;31595;51.418;7.572;2023-07-31T10:04:05;4.30;;;2.90;;
45887;SDS011;31595;51.418;7.572;2023-07-31T10:06:34;5.72;;;2.90;;
45887;SDS011;31595;51.418;7.572;2023-07-31T10:09:01;3.53;;;2.60;;
45887;SDS011;31595;51.418;7.572;2023-07-31T10:11:28;3.90;;;2.78;;
45887;SDS011;31595;51.418;7.572;2023-07-31T10:13:58;4.38;;;2.58;;
45887;SDS011;31595;51.418;7.572;2023-07-31T10:16:25;4.38;;;2.33;;
45887;SDS011;31595;51.418;7.572;2023-07-31T10:18:52;3.72;;;2.35;;
45887;SDS011;31595;51.418;7.572;2023-07-31T10:21:19;3.22;;;2.13;;
45887;SDS011;31595;51.418;7.572;2023-07-31T10:23:46;3.65;;;2.38;;
45887;SDS011;31595;51.418;7.572;2023-07-31T10:26:16;3.53;;;2.30;;
45887;SDS011;31595;51.418;7.572;2023-07-31T10:28:43;3.20;;;1.90;;
45887;SDS011;31595;51.418;7.572;2023-07-31T10:31:12;3.08;;;1.80;;
45887;SDS011;31595;51.418;7.572;2023-07-31T10:33:39;3.83;;;1.80;;
45887;SDS011;31595;51.418;7.572;2023-07-31T10:36:16;3.95;;;2.40;;
45887;SDS011;31595;51.418;7.572;2023-07-31T10:38:43;2.78;;;1.85;;
45887;SDS011;31595;51.418;7.572;2023-07-31T10:41:10;3.83;;;1.70;;
45887;SDS011;31595;51.418;7.572;2023-07-31T10:43:37;2.60;;;1.60;;
45887;SDS011;31595;51.418;7.572;2023-07-31T10:46:07;2.35;;;1.73;;
45887;SDS011;31595;51.418;7.572;2023-07-31T10:48:36;2.25;;;1.77;;
45887;SDS011;31595;51.418;7.572;2023-07-31T10:51:06;3.22;;;2.10;;
45887;SDS011;31595;51.418;7.572;2023-07-31T10:53:33;2.38;;;1.77;;
45887;SDS011;31595;51.418;7.572;2023-07-31T10:56:00;2.80;;;2.00;;
45887;SDS011;31595;51.418;7.572;2023-07-31T10:58:27;2.50;;;2.00;;
45887;SDS011;31595;51.418;7.572;2023-07-31T11:00:55;3.65;;;2.25;;
45887;SDS011;31595;51.418;7.572;2023-07-31T11:03:24;2.60;;;2.03;;
45887;SDS011;31595;51.418;7.572;2023-07-31T11:08:21;3.80;;;2.10;;
45887;SDS011;31595;51.418;7.572;2023-07-31T11:10:49;3.05;;;2.08;;
45887;SDS011;31595;51.418;7.572;2023-07-31T11:13:16;3.47;;;1.83;;
45887;SDS011;31595;51.418;7.572;2023-07-31T11:15:46;3.05;;;2.10;;
45887;SDS011;31595;51.418;7.572;2023-07-31T11:18:13;3.13;;;1.92;;
45887;SDS011;31595;51.418;7.572;2023-07-31T11:20:42;2.70;;;2.17;;
45887;SDS011;31595;51.418;7.572;2023-07-31T11:23:09;2.30;;;2.00;;
45887;SDS011;31595;51.418;7.572;2023-07-31T11:25:39;2.47;;;1.60;;
45887;SDS011;31595;51.418;7.572;2023-07-31T11:28:09;2.50;;;1.73;;
45887;SDS011;31595;51.418;7.572;2023-07-31T11:30:36;2.42;;;1.92;;
45887;SDS011;31595;51.418;7.572;2023-07-31T11:33:04;2.80;;;1.90;;
45887;SDS011;31595;51.418;7.572;2023-07-31T11:35:32;3.05;;;2.15;;
45887;SDS011;31595;51.418;7.572;2023-07-31T11:37:59;3.22;;;2.28;;
45887;SDS011;31595;51.418;7.572;2023-07-31T11:40:26;3.42;;;2.20;;
45887;SDS011;31595;51.418;7.572;2023-07-31T11:42:57;3.20;;;2.17;;
45887;SDS011;31595;51.418;7.572;2023-07-31T11:45:25;3.92;;;2.42;;
45887;SDS011;31595;51.418;7.572;2023-07-31T11:47:52;3.40;;;2.20;;
45887;SDS011;31595;51.418;7.572;2023-07-31T11:50:20;3.58;;;2.33;;
45887;SDS011;31595;51.418;7.572;2023-07-31T11:52:47;2.58;;;2.00;;
45887;SDS011;31595;51.418;7.572;2023-07-31T11:55:16;3.90;;;2.50;;
45887;SDS011;31595;51.418;7.572;2023-07-31T11:57:43;3.63;;;2.20;;
45887;SDS011;31595;51.418;7.572;2023-07-31T12:00:13;3.45;;;2.47;;
45887;SDS011;31595;51.418;7.572;2023-07-31T12:02:40;5.18;;;2.25;;
45887;SDS011;31595;51.418;7.572;2023-07-31T12:05:10;3.83;;;2.65;;
45887;SDS011;31595;51.418;7.572;2023-07-31T12:07:46;3.65;;;2.45;;
45887;SDS011;31595;51.418;7.572;2023-07-31T12:10:23;5.00;;;3.20;;
45887;SDS011;31595;51.418;7.572;2023-07-31T12:12:55;5.82;;;2.70;;
45887;SDS011;31595;51.418;7.572;2023-07-31T12:15:23;4.57;;;2.65;;
45887;SDS011;31595;51.418;7.572;2023-07-31T12:17:54;3.13;;;2.58;;
45887;SDS011;31595;51.418;7.572;2023-07-31T12:20:21;5.53;;;2.50;;
45887;SDS011;31595;51.418;7.572;2023-07-31T12:22:49;3.55;;;2.70;;
45887;SDS011;31595;51.418;7.572;2023-07-31T12:25:16;3.97;;;2.75;;
45887;SDS011;31595;51.418;7.572;2023-07-31T12:27:44;6.88;;;2.60;;
45887;SDS011;31595;51.418;7.572;2023-07-31T12:33:05;3.75;;;2.35;;
45887;SDS011;31595;51.418;7.572;2023-07-31T12:35:36;3.22;;;2.13;;
45887;SDS011;31595;51.418;7.572;2023-07-31T12:38:03;4.00;;;2.20;;
45887;SDS011;31595;51.418;7.572;2023-07-31T12:40:30;3.00;;;2.00;;
45887;SDS011;31595;51.418;7.572;2023-07-31T12:42:56;3.35;;;2.15;;
45887;SDS011;31595;51.418;7.572;2023-07-31T12:45:23;2.85;;;1.85;;
45887;SDS011;31595;51.418;7.572;2023-07-31T12:47:50;3.25;;;1.90;;
45887;SDS011;31595;51.418;7.572;2023-07-31T12:50:18;3.80;;;2.40;;
45887;SDS011;31595;51.418;7.572;2023-07-31T12:52:45;4.07;;;1.75;;
45887;SDS011;31595;51.418;7.572;2023-07-31T12:55:12;3.22;;;1.70;;
45887;SDS011;31595;51.418;7.572;2023-07-31T12:57:39;3.08;;;1.92;;
45887;SDS011;31595;51.418;7.572;2023-07-31T13:00:06;4.10;;;1.80;;
45887;SDS011;31595;51.418;7.572;2023-07-31T13:02:33;3.70;;;1.88;;
45887;SDS011;31595;51.418;7.572;2023-07-31T13:05:00;2.45;;;1.88;;
45887;SDS011;31595;51.418;7.572;2023-07-31T13:07:28;2.85;;;1.90;;
45887;SDS011;31595;51.418;7.572;2023-07-31T13:09:55;2.92;;;1.70;;
45887;SDS011;31595;51.418;7.572;2023-07-31T13:12:21;2.67;;;2.00;;
45887;SDS011;31595;51.418;7.572;2023-07-31T13:14:48;2.83;;;1.95;;
45887;SDS011;31595;51.418;7.572;2023-07-31T13:17:15;3.85;;;2.17;;
45887;SDS011;31595;51.418;7.572;2023-07-31T13:19:42;3.33;;;1.80;;
45887;SDS011;31595;51.418;7.572;2023-07-31T13:22:09;2.22;;;1.48;;
45887;SDS011;31595;51.418;7.572;2023-07-31T13:24:37;2.83;;;1.50;;
45887;SDS011;31595;51.418;7.572;2023-07-31T13:27:04;2.70;;;1.75;;
45887;SDS011;31595;51.418;7.572;2023-07-31T13:29:31;2.33;;;1.40;;
45887;SDS011;31595;51.418;7.572;2023-07-31T13:31:57;3.40;;;1.58;;
45887;SDS011;31595;51.418;7.572;2023-07-31T13:34:24;2.00;;;1.52;;
45887;SDS011;31595;51.418;7.572;2023-07-31T13:36:51;2.03;;;1.55;;
45887;SDS011;31595;51.418;7.572;2023-07-31T13:39:18;2.53;;;1.98;;
45887;SDS011;31595;51.418;7.572;2023-07-31T13:41:46;2.00;;;1.27;;
45887;SDS011;31595;51.418;7.572;2023-07-31T13:44:13;2.50;;;1.20;;
45887;SDS011;31595;51.418;7.572;2023-07-31T13:46:40;1.85;;;1.23;;
45887;SDS011;31595;51.418;7.572;2023-07-31T13:49:07;2.00;;;1.35;;
45887;SDS011;31595;51.418;7.572;2023-07-31T13:51:34;2.90;;;1.48;;
45887;SDS011;31595;51.418;7.572;2023-07-31T13:54:01;2.00;;;1.40;;
45887;SDS011;31595;51.418;7.572;2023-07-31T13:56:27;2.25;;;1.50;;
45887;SDS011;31595;51.418;7.572;2023-07-31T13:58:55;2.38;;;1.67;;
45887;SDS011;31595;51.418;7.572;2023-07-31T14:01:22;3.55;;;1.42;;
45887;SDS011;31595;51.418;7.572;2023-07-31T14:03:49;2.33;;;1.42;;
45887;SDS011;31595;51.418;7.572;2023-07-31T14:06:16;3.58;;;1.88;;
45887;SDS011;31595;51.418;7.572;2023-07-31T14:08:43;2.50;;;1.70;;
45887;SDS011;31595;51.418;7.572;2023-07-31T14:11:09;4.30;;;2.00;;
45887;SDS011;31595;51.418;7.572;2023-07-31T14:13:36;2.83;;;1.80;;
45887;SDS011;31595;51.418;7.572;2023-07-31T14:16:04;2.88;;;2.40;;
45887;SDS011;31595;51.418;7.572;2023-07-31T14:18:31;3.70;;;2.17;;
45887;SDS011;31595;51.418;7.572;2023-07-31T14:20:58;2.60;;;2.13;;
45887;SDS011;31595;51.418;7.572;2023-07-31T14:23:25;3.42;;;2.28;;
45887;SDS011;31595;51.418;7.572;2023-07-31T14:25:52;4.80;;;2.40;;
45887;SDS011;31595;51.418;7.572;2023-07-31T14:28:19;3.67;;;2.70;;
45887;SDS011;31595;51.418;7.572;2023-07-31T14:30:48;3.97;;;2.20;;
45887;SDS011;31595;51.418;7.572;2023-07-31T14:33:16;3.15;;;2.00;;
45887;SDS011;31595;51.418;7.572;2023-07-31T14:35:43;3.60;;;2.25;;
45887;SDS011;31595;51.418;7.572;2023-07-31T14:38:10;4.40;;;2.55;;
45887;SDS011;31595;51.418;7.572;2023-07-31T14:40:37;5.00;;;2.70;;
45887;SDS011;31595;51.418;7.572;2023-07-31T14:43:04;3.60;;;2.28;;
45887;SDS011;31595;51.418;7.572;2023-07-31T14:45:31;3.47;;;2.00;;
45887;SDS011;31595;51.418;7.572;2023-07-31T14:47:57;3.55;;;2.55;;
45887;SDS011;31595;51.418;7.572;2023-07-31T14:50:26;4.63;;;2.63;;
45887;SDS011;31595;51.418;7.572;2023-07-31T14:52:53;4.73;;;2.33;;
45887;SDS011;31595;51.418;7.572;2023-07-31T14:55:19;4.55;;;2.45;;
45887;SDS011;31595;51.418;7.572;2023-07-31T14:57:46;3.25;;;2.30;;
45887;SDS011;31595;51.418;7.572;2023-07-31T15:00:14;4.53;;;2.58;;
45887;SDS011;31595;51.418;7.572;2023-07-31T15:02:41;4.85;;;2.72;;
45887;SDS011;31595;51.418;7.572;2023-07-31T15:05:08;3.42;;;2.15;;
45887;SDS011;31595;51.418;7.572;2023-07-31T15:07:36;4.07;;;2.28;;
45887;SDS011;31595;51.418;7.572;2023-07-31T15:10:03;3.05;;;2.20;;